Time;durP1;ratioP1;P1;durP2;ratioP2;P2;SDS_P1;SDS_P2;PMS_P1;PMS_P2;Temp;Humidity;BMP_temperature;BMP_pressure;BME280_temperature;BME280_humidity;BME280_pressure;Samples;Min_cycle;Max_cycle;Signal;HPM_P1;HPM_P2
2022/09/04 00:00:09;;;;;;;7.10;6.38;;;11.70;99.90;;;;;;5094804;28;20024;-73
2022/09/04 00:02:49;;;;;;;9.68;7.22;;;11.70;99.90;;;;;;5094669;28;20025;-79
2022/09/04 00:05:29;;;;;;;8.38;7.10;;;11.70;99.90;;;;;;5094939;28;20052;-80
2022/09/04 00:08:32;;;;;;;10.13;7.22;;;11.70;99.90;;;;;;5094936;28;20020;-79
2022/09/04 00:11:25;;;;;;;8.23;7.20;;;11.60;99.90;;;;;;5095233;28;20032;-80
2022/09/04 00:14:09;;;;;;;10.35;8.05;;;11.60;99.90;;;;;;5095189;28;20507;-73
2022/09/04 00:16:41;;;;;;;10.63;7.32;;;11.60;99.90;;;;;;5094024;28;20024;-73
2022/09/04 00:19:42;;;;;;;9.70;7.35;;;11.60;99.90;;;;;;5093789;28;20436;-80
2022/09/04 00:22:21;;;;;;;9.52;6.90;;;11.60;99.90;;;;;;5074846;28;20091;-73
2022/09/04 00:25:10;;;;;;;8.77;7.63;;;11.60;99.90;;;;;;5074796;28;20027;-73
2022/09/04 00:27:45;;;;;;;9.73;6.75;;;11.60;99.90;;;;;;5073571;28;20047;-73
2022/09/04 00:30:21;;;;;;;9.77;7.70;;;11.50;99.90;;;;;;5074663;28;20033;-73
2022/09/04 00:33:09;;;;;;;10.30;7.88;;;11.50;99.90;;;;;;5074687;28;20032;-79
2022/09/04 00:35:39;;;;;;;9.55;7.15;;;11.40;99.90;;;;;;5073219;28;20028;-73
2022/09/04 00:38:11;;;;;;;9.63;7.53;;;11.50;99.90;;;;;;5073181;28;20482;-73
2022/09/04 00:41:22;;;;;;;10.80;7.20;;;11.40;99.90;;;;;;5074405;28;20070;-73
2022/09/04 00:44:00;;;;;;;9.50;7.53;;;11.40;99.90;;;;;;5074355;28;20378;-73
2022/09/04 00:46:43;;;;;;;8.05;7.20;;;11.40;99.90;;;;;;5090105;28;20025;-80
2022/09/04 00:49:41;;;;;;;9.48;7.50;;;11.40;99.90;;;;;;5079378;28;20115;-73
2022/09/04 00:52:53;;;;;;;8.82;7.90;;;11.40;99.90;;;;;;5093985;28;20082;-73
2022/09/04 00:55:30;;;;;;;10.65;8.20;;;11.30;99.90;;;;;;5092319;28;20043;-73
2022/09/04 00:58:22;;;;;;;11.38;7.90;;;11.30;99.90;;;;;;5092364;28;20039;-73
2022/09/04 01:00:48;;;;;;;9.65;7.63;;;11.20;99.90;;;;;;5092397;28;20168;-79
2022/09/04 01:03:31;;;;;;;10.80;8.98;;;11.20;99.90;;;;;;5093386;28;20496;-73
2022/09/04 01:06:17;;;;;;;12.18;8.20;;;11.10;99.90;;;;;;5092583;28;20042;-73
2022/09/04 01:09:16;;;;;;;8.15;7.18;;;11.10;99.90;;;;;;5109769;28;20409;-79
2022/09/04 01:11:47;;;;;;;10.20;8.25;;;11.10;99.90;;;;;;5094319;28;20031;-80
2022/09/04 01:14:40;;;;;;;9.80;7.57;;;11.10;99.90;;;;;;5094180;28;20363;-73
2022/09/04 01:17:40;;;;;;;11.68;8.73;;;11.20;99.90;;;;;;5094368;28;20061;-73
2022/09/04 01:20:30;;;;;;;10.40;8.07;;;11.20;99.90;;;;;;5092607;28;20012;-79
2022/09/04 01:23:06;;;;;;;8.88;7.32;;;11.30;99.90;;;;;;5093970;28;20035;-80
2022/09/04 01:25:56;;;;;;;10.57;7.45;;;11.30;99.90;;;;;;5094048;28;20111;-72
2022/09/04 01:29:06;;;;;;;10.45;8.38;;;11.30;99.90;;;;;;5093908;28;20389;-79
2022/09/04 01:31:46;;;;;;;10.52;7.88;;;11.30;99.90;;;;;;5093451;28;20393;-80
2022/09/04 01:34:33;;;;;;;12.23;8.00;;;11.30;99.90;;;;;;5093781;28;20028;-73
2022/09/04 01:37:42;;;;;;;11.23;7.68;;;11.40;99.90;;;;;;5093720;28;20027;-73
2022/09/04 01:40:39;;;;;;;10.10;7.82;;;11.30;99.90;;;;;;5048522;28;20107;-73
2022/09/04 01:43:10;;;;;;;10.05;7.55;;;11.30;99.90;;;;;;5092325;28;20028;-73
2022/09/04 01:46:00;;;;;;;10.95;8.65;;;11.30;99.90;;;;;;5092276;28;20032;-73
2022/09/04 01:48:59;;;;;;;13.73;8.20;;;11.30;99.90;;;;;;5092171;28;20499;-73
2022/09/04 01:51:54;;;;;;;10.65;7.97;;;11.40;99.90;;;;;;5091096;28;20020;-73
2022/09/04 01:54:30;;;;;;;10.02;7.50;;;11.40;99.90;;;;;;5091455;28;20047;-73
2022/09/04 01:57:01;;;;;;;9.55;7.15;;;11.40;99.90;;;;;;5091493;28;20024;-73
2022/09/04 01:59:53;;;;;;;10.27;7.03;;;11.40;99.90;;;;;;5091231;28;20497;-73
2022/09/04 02:02:40;;;;;;;9.30;7.60;;;11.40;99.90;;;;;;5092682;28;20042;-73
2022/09/04 02:05:34;;;;;;;9.00;6.88;;;11.40;99.90;;;;;;5091273;28;20392;-73
2022/09/04 02:08:32;;;;;;;10.90;7.45;;;11.30;99.90;;;;;;5092079;28;20466;-73
2022/09/04 02:11:11;;;;;;;10.57;7.85;;;11.30;99.90;;;;;;5093271;28;20024;-79
2022/09/04 02:14:05;;;;;;;9.07;7.50;;;11.30;99.90;;;;;;5093350;28;20026;-79
2022/09/04 02:16:37;;;;;;;11.38;8.38;;;11.30;99.90;;;;;;5085365;28;20036;-72
2022/09/04 02:19:17;;;;;;;10.45;8.10;;;11.20;99.90;;;;;;5093174;28;20023;-73
2022/09/04 02:21:50;;;;;;;10.20;7.80;;;11.20;99.90;;;;;;5093280;28;20028;-80
2022/09/04 02:25:05;;;;;;;11.10;8.15;;;11.20;99.90;;;;;;5093322;28;20066;-79
2022/09/04 02:27:38;;;;;;;11.18;8.80;;;11.10;99.90;;;;;;5084859;28;20040;-73
2022/09/04 02:30:09;;;;;;;11.43;8.65;;;11.10;99.90;;;;;;5091930;28;20505;-74
2022/09/04 02:33:02;;;;;;;10.75;8.30;;;11.00;99.90;;;;;;5091930;28;20406;-80
2022/09/04 02:35:58;;;;;;;12.85;8.88;;;10.90;99.90;;;;;;5091857;28;20020;-73
2022/09/04 02:39:04;;;;;;;10.43;8.05;;;10.90;99.90;;;;;;5086420;28;20035;-73
2022/09/04 02:41:29;;;;;;;12.30;9.60;;;10.80;99.90;;;;;;5082538;28;20604;-73
2022/09/04 02:44:29;;;;;;;10.20;7.47;;;10.80;99.90;;;;;;5094223;28;20024;-73
2022/09/04 02:47:20;;;;;;;11.27;8.60;;;10.70;99.90;;;;;;5086139;28;20040;-74
2022/09/04 02:49:51;;;;;;;12.93;9.98;;;10.70;99.90;;;;;;5112610;28;20454;-80
2022/09/04 02:52:32;;;;;;;12.15;8.63;;;10.70;99.90;;;;;;5096083;28;20028;-74
2022/09/04 02:55:09;;;;;;;11.52;8.70;;;10.80;99.90;;;;;;5094930;28;20476;-79
2022/09/04 02:57:57;;;;;;;11.55;8.55;;;10.70;99.90;;;;;;5095465;28;20069;-80
2022/09/04 03:00:47;;;;;;;13.20;9.43;;;10.70;99.90;;;;;;5094865;28;20081;-80
2022/09/04 03:03:37;;;;;;;12.23;8.85;;;10.70;99.90;;;;;;5085033;28;20066;-79
2022/09/04 03:06:09;;;;;;;11.75;8.98;;;10.70;99.90;;;;;;5095234;28;20490;-73
2022/09/04 03:08:46;;;;;;;14.25;9.30;;;10.60;99.90;;;;;;5096654;28;20118;-80
2022/09/04 03:11:25;;;;;;;12.82;9.98;;;10.60;99.90;;;;;;5096432;28;20051;-80
2022/09/04 03:13:51;;;;;;;14.32;10.15;;;10.50;99.90;;;;;;5096435;28;20020;-73
2022/09/04 03:16:38;;;;;;;14.77;10.85;;;10.50;99.90;;;;;;5096362;28;20031;-79
2022/09/04 03:19:35;;;;;;;12.77;9.80;;;10.40;99.90;;;;;;5096282;28;20389;-73
2022/09/04 03:22:23;;;;;;;13.80;9.30;;;10.30;99.90;;;;;;5072750;28;20371;-73
2022/09/04 03:25:28;;;;;;;14.57;10.27;;;10.30;99.90;;;;;;5076102;28;20035;-73
2022/09/04 03:27:53;;;;;;;15.30;10.57;;;10.20;99.90;;;;;;5091643;28;20484;-73
2022/09/04 03:30:19;;;;;;;16.50;11.20;;;10.10;99.90;;;;;;5074494;28;20025;-80
2022/09/04 03:33:09;;;;;;;19.83;11.20;;;10.10;99.90;;;;;;5074649;28;20016;-73
2022/09/04 03:35:46;;;;;;;16.10;10.68;;;10.10;99.90;;;;;;5074498;28;20025;-73
2022/09/04 03:38:22;;;;;;;18.67;10.38;;;10.00;99.90;;;;;;5075894;28;20363;-80
2022/09/04 03:40:50;;;;;;;14.43;10.50;;;10.00;99.90;;;;;;5075489;28;20037;-73
2022/09/04 03:43:45;;;;;;;14.85;10.68;;;10.00;99.90;;;;;;5075710;28;20482;-80
2022/09/04 03:46:32;;;;;;;19.77;12.60;;;9.90;99.90;;;;;;5062844;28;20486;-80
2022/09/04 03:48:58;;;;;;;15.98;11.60;;;9.90;99.90;;;;;;5075623;28;20062;-80
2022/09/04 03:51:36;;;;;;;18.95;12.38;;;9.90;99.90;;;;;;5075442;28;20452;-79
2022/09/04 03:54:22;;;;;;;16.63;12.00;;;9.90;99.90;;;;;;5075275;28;20032;-80
2022/09/04 03:57:07;;;;;;;19.25;12.45;;;9.90;99.90;;;;;;5086508;28;20073;-73
2022/09/04 03:59:36;;;;;;;15.98;11.13;;;9.90;99.90;;;;;;5095451;28;20039;-80
2022/09/04 04:02:01;;;;;;;14.85;10.63;;;10.00;99.90;;;;;;5094044;28;20487;-80
2022/09/04 04:04:41;;;;;;;16.77;11.55;;;10.00;99.90;;;;;;5095189;28;20051;-73
2022/09/04 04:07:27;;;;;;;20.83;12.32;;;10.00;99.90;;;;;;5095500;28;20430;-73
2022/09/04 04:10:18;;;;;;;15.15;11.05;;;10.00;99.90;;;;;;5094131;28;20031;-80
2022/09/04 04:12:52;;;;;;;16.90;10.48;;;10.00;99.90;;;;;;5094108;28;20617;-73
2022/09/04 04:15:20;;;;;;;17.15;11.95;;;10.10;99.90;;;;;;5095261;28;20031;-80
2022/09/04 04:18:36;;;;;;;18.42;12.15;;;10.10;99.90;;;;;;5093752;28;20505;-73
2022/09/04 04:21:11;;;;;;;17.73;11.13;;;10.10;99.90;;;;;;5040675;28;20048;-79
2022/09/04 04:23:40;;;;;;;16.25;10.90;;;10.20;99.90;;;;;;5093779;28;20059;-73
2022/09/04 04:26:13;;;;;;;16.77;11.60;;;10.20;99.90;;;;;;5093764;28;20386;-80
2022/09/04 04:28:55;;;;;;;15.65;10.35;;;10.20;99.90;;;;;;5095206;28;20056;-73
2022/09/04 04:32:10;;;;;;;19.67;12.27;;;10.20;99.90;;;;;;5093817;28;20031;-73
2022/09/04 04:35:07;;;;;;;17.67;11.32;;;10.30;99.90;;;;;;5093714;28;20087;-80
2022/09/04 04:38:02;;;;;;;20.75;11.98;;;10.30;99.90;;;;;;5094850;28;20386;-73
2022/09/04 04:40:31;;;;;;;18.80;12.07;;;10.30;99.90;;;;;;5094697;28;20374;-73
2022/09/04 04:43:06;;;;;;;19.55;11.98;;;10.30;99.90;;;;;;5094644;28;20116;-80
2022/09/04 04:45:58;;;;;;;16.52;11.60;;;10.30;99.90;;;;;;5094798;28;20016;-73
2022/09/04 04:48:30;;;;;;;15.68;10.80;;;10.30;99.90;;;;;;5093262;28;20110;-80
2022/09/04 04:51:30;;;;;;;17.63;11.00;;;10.30;99.90;;;;;;5093425;28;20114;-80
2022/09/04 04:54:33;;;;;;;18.10;12.70;;;10.30;99.90;;;;;;5094742;28;20044;-80
2022/09/04 04:57:04;;;;;;;;;;;10.30;99.90;;;;;;5012850;28;20038;-80
2022/09/04 05:00:07;;;;;;;15.82;10.23;;;10.40;99.90;;;;;;5077955;28;19920;-80
2022/09/04 05:03:05;;;;;;;16.15;10.35;;;10.40;99.90;;;;;;5094258;28;20038;-79
2022/09/04 05:05:56;;;;;;;16.15;10.80;;;10.40;99.90;;;;;;5092751;28;20048;-73
2022/09/04 05:08:35;;;;;;;15.07;11.00;;;10.40;99.90;;;;;;5092690;28;20016;-80
2022/09/04 05:11:29;;;;;;;14.85;9.85;;;10.40;99.90;;;;;;5094216;28;20035;-73
2022/09/04 05:14:15;;;;;;;18.48;10.85;;;10.40;99.90;;;;;;5094229;28;20453;-73
2022/09/04 05:17:25;;;;;;;18.30;11.27;;;10.40;99.90;;;;;;5092887;28;20024;-80
2022/09/04 05:20:24;;;;;;;17.00;10.52;;;10.40;99.90;;;;;;5085078;28;20051;-80
2022/09/04 05:23:05;;;;;;;14.85;10.35;;;10.40;99.90;;;;;;5092722;28;20891;-80
2022/09/04 05:25:33;;;;;;;17.45;11.18;;;10.50;99.90;;;;;;5094234;28;20035;-80
2022/09/04 05:28:06;;;;;;;13.13;9.82;;;10.50;99.90;;;;;;5094058;28;20025;-79
2022/09/04 05:31:14;;;;;;;14.10;10.00;;;10.50;99.90;;;;;;5092697;28;20032;-73
2022/09/04 05:34:07;;;;;;;16.27;10.18;;;10.60;99.90;;;;;;5079779;28;20077;-73
2022/09/04 05:36:45;;;;;;;14.68;10.43;;;10.70;99.90;;;;;;5086059;28;20067;-73
2022/09/04 05:39:20;;;;;;;14.68;9.30;;;10.60;99.90;;;;;;5093664;28;20020;-80
2022/09/04 05:42:04;;;;;;;12.57;9.35;;;10.60;99.90;;;;;;5093825;28;20028;-73
2022/09/04 05:44:46;;;;;;;14.10;10.27;;;10.70;99.90;;;;;;5093753;28;20021;-73
2022/09/04 05:47:23;;;;;;;14.75;10.32;;;10.70;99.90;;;;;;5092492;28;20028;-73
2022/09/04 05:50:16;;;;;;;15.90;9.63;;;10.80;99.90;;;;;;5093598;28;20024;-80
2022/09/04 05:53:08;;;;;;;12.60;9.30;;;10.80;99.90;;;;;;5092332;28;20053;-80
2022/09/04 05:55:40;;;;;;;14.15;8.77;;;10.80;99.90;;;;;;5091473;28;20032;-80
2022/09/04 05:58:18;;;;;;;11.77;9.10;;;10.90;99.90;;;;;;5093635;28;20383;-80
2022/09/04 06:01:22;;;;;;;11.25;9.25;;;10.90;99.90;;;;;;5092146;28;20398;-73
2022/09/04 06:04:31;;;;;;;11.02;8.30;;;10.90;99.90;;;;;;5091795;28;20055;-79
2022/09/04 06:07:09;;;;;;;14.18;7.65;;;11.00;99.90;;;;;;5109118;28;20085;-81
2022/09/04 06:10:13;;;;;;;14.75;9.13;;;11.10;99.90;;;;;;5091884;28;20469;-73
2022/09/04 06:12:55;;;;;;;9.48;7.72;;;11.10;99.90;;;;;;5093265;28;20049;-73
2022/09/04 06:15:32;;;;;;;12.18;8.23;;;11.20;99.90;;;;;;5093343;28;20458;-80
2022/09/04 06:18:10;;;;;;;11.93;9.25;;;11.20;99.90;;;;;;5094676;28;20073;-73
2022/09/04 06:20:54;;;;;;;11.63;8.57;;;11.30;99.90;;;;;;5096181;28;20032;-74
2022/09/04 06:23:29;;;;;;;9.95;8.27;;;11.30;99.90;;;;;;5096250;28;20428;-81
2022/09/04 06:26:06;;;;;;;9.77;8.10;;;11.40;99.90;;;;;;5097322;28;20065;-80
2022/09/04 06:28:50;;;;;;;10.23;8.40;;;11.40;99.90;;;;;;5097248;28;20024;-80
2022/09/04 06:31:19;;;;;;;11.70;8.52;;;11.40;99.90;;;;;;5095921;28;20028;-80
2022/09/04 06:34:06;;;;;;;11.48;7.72;;;11.50;99.90;;;;;;5097221;28;20077;-73
2022/09/04 06:36:56;;;;;;;12.52;8.35;;;11.60;99.90;;;;;;5095969;28;20135;-80
2022/09/04 06:39:35;;;;;;;9.80;8.10;;;11.70;99.90;;;;;;5095708;28;20050;-74
2022/09/04 06:42:08;;;;;;;11.23;8.32;;;11.90;99.90;;;;;;5095899;28;20044;-73
2022/09/04 06:44:39;;;;;;;11.38;8.27;;;12.00;99.90;;;;;;5095684;28;20027;-77
2022/09/04 06:47:23;;;;;;;9.23;7.25;;;12.20;99.90;;;;;;5095759;28;20036;-81
2022/09/04 06:50:20;;;;;;;10.32;7.60;;;12.30;99.90;;;;;;5096912;28;20020;-73
2022/09/04 06:53:06;;;;;;;8.57;7.38;;;12.40;99.90;;;;;;5096676;28;20492;-73
2022/09/04 06:56:02;;;;;;;8.75;7.55;;;12.50;99.90;;;;;;5112499;28;20500;-73
2022/09/04 06:58:56;;;;;;;8.75;7.13;;;12.70;99.90;;;;;;5112435;28;20413;-73
2022/09/04 07:02:02;;;;;;;8.30;7.18;;;12.60;99.90;;;;;;5095455;28;20024;-73
2022/09/04 07:05:03;;;;;;;9.80;6.82;;;12.60;99.90;;;;;;5096580;28;20074;-73
2022/09/04 07:07:43;;;;;;;8.25;6.50;;;12.60;99.90;;;;;;5095451;28;20032;-73
2022/09/04 07:10:14;;;;;;;7.60;6.78;;;12.60;99.90;;;;;;5112133;28;20032;-73
2022/09/04 07:13:01;;;;;;;6.70;5.85;;;12.60;99.90;;;;;;5095235;28;20473;-81
2022/09/04 07:15:45;;;;;;;8.15;6.93;;;12.60;99.90;;;;;;5096330;28;20158;-73
2022/09/04 07:18:22;;;;;;;8.77;7.15;;;12.60;99.90;;;;;;5095236;28;20027;-73
2022/09/04 07:21:16;;;;;;;6.93;6.18;;;12.80;99.90;;;;;;5096101;28;20057;-73
2022/09/04 07:23:57;;;;;;;8.77;5.53;;;13.20;99.90;;;;;;5096232;28;20032;-80
2022/09/04 07:26:26;;;;;;;7.20;5.88;;;13.50;99.90;;;;;;5095024;28;20482;-73
2022/09/04 07:29:16;;;;;;;5.13;4.57;;;13.80;99.90;;;;;;5095586;28;20052;-81
2022/09/04 07:32:10;;;;;;;5.93;5.10;;;14.10;99.90;;;;;;5094956;28;20028;-81
2022/09/04 07:34:54;;;;;;;6.10;4.30;;;14.30;99.90;;;;;;5096142;28;20024;-73
2022/09/04 07:37:26;;;;;;;3.97;3.58;;;14.40;99.90;;;;;;5094756;28;20023;-73
2022/09/04 07:39:56;;;;;;;3.47;3.20;;;14.50;99.90;;;;;;5094614;28;20032;-81
2022/09/04 07:42:47;;;;;;;3.03;2.75;;;14.60;99.90;;;;;;5095848;28;20024;-81
2022/09/04 07:45:31;;;;;;;3.90;3.00;;;14.80;99.90;;;;;;5111520;28;20016;-75
2022/09/04 07:48:21;;;;;;;3.17;2.88;;;15.00;99.90;;;;;;5094640;28;20021;-81
2022/09/04 07:51:09;;;;;;;2.83;2.55;;;15.20;99.90;;;;;;5094482;28;20027;-74
2022/09/04 07:53:53;;;;;;;2.45;2.25;;;15.50;99.90;;;;;;5095835;28;20024;-74
2022/09/04 07:56:53;;;;;;;2.45;2.30;;;15.30;99.90;;;;;;5095656;28;20132;-82
2022/09/04 07:59:38;;;;;;;3.33;3.03;;;15.60;99.90;;;;;;5094193;28;20111;-81
2022/09/04 08:02:20;;;;;;;2.70;2.50;;;15.70;99.90;;;;;;5094394;28;20028;-74
2022/09/04 08:04:49;;;;;;;2.40;2.20;;;15.70;99.90;;;;;;5095438;28;20055;-82
2022/09/04 08:07:33;;;;;;;2.80;2.58;;;15.80;99.90;;;;;;5095537;28;20024;-81
2022/09/04 08:10:16;;;;;;;3.65;2.60;;;15.90;99.90;;;;;;5095366;28;20109;-74
2022/09/04 08:12:58;;;;;;;2.83;2.58;;;16.00;99.90;;;;;;5095364;28;20449;-82
2022/09/04 08:15:30;;;;;;;3.20;2.90;;;16.00;99.90;;;;;;5095138;28;20024;-82
2022/09/04 08:18:03;;;;;;;;;;;16.10;99.90;;;;;;5094345;28;20135;-75
2022/09/04 08:20:53;;;;;;;3.28;2.38;;;16.20;99.90;;;;;;5094968;28;20010;-74
2022/09/04 08:23:41;;;;;;;3.05;2.05;;;16.40;99.90;;;;;;5093977;28;20111;-75
2022/09/04 08:26:24;;;;;;;2.30;2.10;;;16.60;99.90;;;;;;5095103;28;20055;-82
2022/09/04 08:29:11;;;;;;;2.30;2.20;;;16.70;99.90;;;;;;5093787;28;20021;-74
2022/09/04 08:32:03;;;;;;;2.08;1.98;;;16.80;99.90;;;;;;5093618;28;20078;-74
2022/09/04 08:34:36;;;;;;;2.20;2.10;;;16.80;99.50;;;;;;5093627;28;20027;-82
2022/09/04 08:37:02;;;;;;;2.47;1.85;;;16.70;99.80;;;;;;5094766;28;20020;-75
2022/09/04 08:39:30;;;;;;;2.38;2.17;;;16.70;99.90;;;;;;5094783;28;20039;-75
2022/09/04 08:42:23;;;;;;;2.30;2.15;;;16.70;99.90;;;;;;5093321;28;20028;-75
2022/09/04 08:45:12;;;;;;;2.05;1.95;;;16.60;99.90;;;;;;5094813;28;20099;-82
2022/09/04 08:47:59;;;;;;;2.00;1.90;;;16.50;99.90;;;;;;5093390;28;20073;-82
2022/09/04 08:50:43;;;;;;;2.20;2.10;;;16.40;99.50;;;;;;5094574;28;20099;-83
2022/09/04 08:53:31;;;;;;;3.15;2.78;;;16.40;99.90;;;;;;5093416;28;20029;-82
2022/09/04 08:56:05;;;;;;;2.70;2.42;;;16.60;99.90;;;;;;5093098;28;20020;-74
2022/09/04 08:58:30;;;;;;;2.50;2.30;;;16.80;99.90;;;;;;5094645;28;20039;-74
2022/09/04 09:01:15;;;;;;;2.60;2.40;;;17.10;98.30;;;;;;5093008;28;20040;-75
2022/09/04 09:04:05;;;;;;;2.63;2.15;;;17.20;94.30;;;;;;5094192;28;20039;-75
2022/09/04 09:06:49;;;;;;;2.83;2.63;;;17.20;92.80;;;;;;5093056;28;20089;-83
2022/09/04 09:09:37;;;;;;;3.03;2.70;;;17.20;93.80;;;;;;5093100;28;20499;-83
2022/09/04 09:12:39;;;;;;;3.05;2.72;;;17.20;93.90;;;;;;5094186;28;20031;-83
2022/09/04 09:15:19;;;;;;;3.20;2.90;;;17.20;93.70;;;;;;5094147;28;20031;-75
2022/09/04 09:17:48;;;;;;;3.00;2.55;;;17.10;92.20;;;;;;5092796;28;20028;-82
2022/09/04 09:20:42;;;;;;;2.80;2.60;;;17.00;93.30;;;;;;5092577;28;20589;-82
2022/09/04 09:23:13;;;;;;;3.33;2.65;;;17.00;96.00;;;;;;5094067;28;20031;-82
2022/09/04 09:25:51;;;;;;;2.78;2.58;;;17.10;97.40;;;;;;5092830;28;20039;-82
2022/09/04 09:28:23;;;;;;;3.00;2.80;;;17.10;96.10;;;;;;5092681;28;20393;-75
2022/09/04 09:31:01;;;;;;;4.15;2.80;;;17.10;95.40;;;;;;5093974;28;20381;-75
2022/09/04 09:33:36;;;;;;;3.10;2.80;;;17.10;96.70;;;;;;5092669;28;20519;-75
2022/09/04 09:36:20;;;;;;;3.75;3.45;;;17.20;95.40;;;;;;5092508;28;20020;-81
2022/09/04 09:38:58;;;;;;;3.75;3.35;;;17.10;96.20;;;;;;5092436;28;20024;-75
2022/09/04 09:41:36;;;;;;;3.58;3.28;;;17.10;96.40;;;;;;5093509;28;20032;-81
2022/09/04 09:44:04;;;;;;;4.22;2.72;;;17.30;94.20;;;;;;5092431;28;20016;-83
2022/09/04 09:47:17;;;;;;;3.17;2.88;;;17.40;96.40;;;;;;5092270;28;20054;-83
2022/09/04 09:50:07;;;;;;;6.85;3.30;;;17.60;94.40;;;;;;5037799;28;20030;-75
2022/09/04 09:52:54;;;;;;;3.33;3.03;;;17.70;93.40;;;;;;5093121;28;20032;-75
2022/09/04 09:55:38;;;;;;;3.58;2.92;;;17.70;93.30;;;;;;5092321;28;20020;-75
2022/09/04 09:58:38;;;;;;;4.03;2.70;;;17.80;91.70;;;;;;5092282;28;20028;-83
2022/09/04 10:01:24;;;;;;;3.35;3.05;;;17.90;92.30;;;;;;5092243;28;20039;-75
2022/09/04 10:03:59;;;;;;;3.35;2.90;;;18.00;88.70;;;;;;5091848;28;20076;-81
2022/09/04 10:06:33;;;;;;;3.17;2.35;;;18.30;89.50;;;;;;5093393;28;20040;-82
2022/09/04 10:09:05;;;;;;;2.67;2.47;;;18.50;85.80;;;;;;5092125;28;20035;-82
2022/09/04 10:11:42;;;;;;;3.08;2.65;;;18.80;84.90;;;;;;5091916;28;20176;-82
2022/09/04 10:14:27;;;;;;;2.30;2.10;;;18.70;79.40;;;;;;5093472;28;20025;-83
2022/09/04 10:17:23;;;;;;;2.95;2.67;;;18.70;81.40;;;;;;5091853;28;20111;-75
2022/09/04 10:20:30;;;;;;;3.67;3.25;;;18.70;81.20;;;;;;5092084;28;20028;-83
2022/09/04 10:23:35;;;;;;;2.65;2.45;;;18.60;78.90;;;;;;5092006;28;20418;-82
2022/09/04 10:26:38;;;;;;;2.38;2.28;;;18.80;83.10;;;;;;5074927;28;20070;-83
2022/09/04 10:29:28;;;;;;;3.35;2.97;;;18.80;79.00;;;;;;5091722;28;20037;-83
2022/09/04 10:32:33;;;;;;;2.78;2.40;;;18.80;78.20;;;;;;5091640;28;20039;-83
2022/09/04 10:35:15;;;;;;;3.40;2.78;;;18.90;78.90;;;;;;5091579;28;20027;-83
2022/09/04 10:38:03;;;;;;;2.30;2.17;;;18.90;77.10;;;;;;5091552;28;20074;-83
2022/09/04 10:41:10;;;;;;;2.60;2.40;;;18.90;77.50;;;;;;5084422;28;20115;-83
2022/09/04 10:44:00;;;;;;;2.60;2.40;;;19.00;75.80;;;;;;5081904;28;20515;-83
2022/09/04 10:46:38;;;;;;;3.05;2.63;;;19.10;75.60;;;;;;5071390;28;20115;-75
2022/09/04 10:49:32;;;;;;;2.67;2.47;;;19.20;75.60;;;;;;5071171;28;20115;-75
2022/09/04 10:52:37;;;;;;;3.38;2.85;;;19.30;77.00;;;;;;5071203;28;20466;-83
2022/09/04 10:55:25;;;;;;;2.78;2.58;;;19.30;75.10;;;;;;5072747;28;20394;-76
2022/09/04 10:58:15;;;;;;;2.90;2.70;;;19.50;74.20;;;;;;5072639;28;20377;-85
2022/09/04 11:00:49;;;;;;;3.45;2.85;;;19.60;75.80;;;;;;5071193;28;20055;-84
2022/09/04 11:03:24;;;;;;;2.55;2.35;;;19.70;74.20;;;;;;5072348;28;20476;-77
2022/09/04 11:06:01;;;;;;;2.97;2.55;;;19.70;74.50;;;;;;5073768;28;20028;-76
2022/09/04 11:09:01;;;;;;;2.70;2.50;;;19.80;71.90;;;;;;5076216;28;20020;-76
2022/09/04 11:11:42;;;;;;;3.88;3.13;;;19.80;73.50;;;;;;5087527;28;20086;-76
2022/09/04 11:14:30;;;;;;;3.55;3.15;;;19.60;71.60;;;;;;5074735;28;20025;-85
2022/09/04 11:17:17;;;;;;;3.25;3.05;;;19.40;72.90;;;;;;5074412;28;20133;-85
2022/09/04 11:20:13;;;;;;;2.72;2.53;;;19.30;78.20;;;;;;5079135;28;20127;-77
2022/09/04 11:23:17;;;;;;;3.30;2.97;;;19.50;79.10;;;;;;5095166;28;20105;-86
2022/09/04 11:26:10;;;;;;;2.78;2.53;;;19.40;77.60;;;;;;5096338;28;20110;-84
2022/09/04 11:28:43;;;;;;;4.78;3.08;;;19.50;76.00;;;;;;5095221;28;20115;-85
2022/09/04 11:31:35;;;;;;;3.40;3.10;;;19.30;76.00;;;;;;5093398;28;20020;-76
2022/09/04 11:34:31;;;;;;;3.42;3.13;;;19.30;77.40;;;;;;5109920;28;20048;-85
2022/09/04 11:37:35;;;;;;;3.10;2.80;;;19.20;78.20;;;;;;5092756;28;20035;-84
2022/09/04 11:40:31;;;;;;;3.13;2.92;;;19.20;78.80;;;;;;5093424;28;20036;-76
2022/09/04 11:43:09;;;;;;;2.72;2.53;;;19.40;77.60;;;;;;5094669;28;20028;-76
2022/09/04 11:45:50;;;;;;;3.20;2.85;;;19.60;78.30;;;;;;5094925;28;20417;-85
2022/09/04 11:48:25;;;;;;;3.08;2.80;;;19.80;75.60;;;;;;5095715;28;20056;-84
2022/09/04 11:51:20;;;;;;;4.15;3.28;;;19.90;75.00;;;;;;5095840;28;20024;-85
2022/09/04 11:54:00;;;;;;;4.32;2.95;;;19.90;73.90;;;;;;5094327;28;20493;-86
2022/09/04 11:56:29;;;;;;;3.42;3.13;;;19.90;73.20;;;;;;5095647;28;20091;-86
2022/09/04 11:59:27;;;;;;;3.13;2.85;;;19.90;71.90;;;;;;5095450;28;20059;-77
2022/09/04 12:01:55;;;;;;;3.13;2.92;;;20.10;71.60;;;;;;4994374;28;20041;-76
2022/09/04 12:04:41;;;;;;;3.08;2.65;;;20.10;71.90;;;;;;5024724;28;20055;-87
2022/09/04 12:07:26;;;;;;;4.47;2.95;;;20.20;70.60;;;;;;5094082;28;20028;-77
2022/09/04 12:10:27;;;;;;;4.97;3.10;;;20.30;69.30;;;;;;5095198;28;20020;-87
2022/09/04 12:13:02;;;;;;;3.50;3.00;;;20.40;70.30;;;;;;5094004;28;20366;-77
2022/09/04 12:15:53;;;;;;;9.68;3.13;;;20.60;68.10;;;;;;5094545;28;20024;-77
2022/09/04 12:18:36;;;;;;;3.45;2.90;;;20.70;68.70;;;;;;5073475;28;20028;-87
2022/09/04 12:21:39;;;;;;;9.85;3.83;;;20.90;67.20;;;;;;5106260;28;20032;-76
2022/09/04 12:24:05;;;;;;;5.43;3.13;;;20.90;66.10;;;;;;5094743;28;20046;-88
2022/09/04 12:26:30;;;;;;;3.10;2.90;;;21.20;68.40;;;;;;5093294;28;20485;-77
2022/09/04 12:29:11;;;;;;;3.78;2.95;;;21.30;66.00;;;;;;5094720;28;20101;-77
2022/09/04 12:32:12;;;;;;;2.75;2.55;;;21.30;65.60;;;;;;5093316;28;20058;-77
2022/09/04 12:34:53;;;;;;;2.95;2.58;;;21.30;66.40;;;;;;5092727;28;20028;-88
2022/09/04 12:37:42;;;;;;;3.15;2.83;;;21.30;66.40;;;;;;5080541;28;20037;-88
2022/09/04 12:40:11;;;;;;;2.83;2.63;;;21.30;66.00;;;;;;5079874;28;20032;-77
2022/09/04 12:43:15;;;;;;;3.83;3.08;;;21.30;65.60;;;;;;5084582;28;20475;-86
2022/09/04 12:46:18;;;;;;;2.63;2.53;;;21.40;65.00;;;;;;5073033;28;20055;-77
2022/09/04 12:49:25;;;;;;;4.53;2.90;;;21.80;64.80;;;;;;5083941;28;20505;-86
2022/09/04 12:51:59;;;;;;;2.88;2.67;;;21.70;63.70;;;;;;5083758;28;20020;-87
2022/09/04 12:54:34;;;;;;;2.80;2.58;;;21.60;64.10;;;;;;5084097;28;20096;-87
2022/09/04 12:57:21;;;;;;;2.95;2.75;;;21.50;64.10;;;;;;5085728;28;20052;-87
2022/09/04 12:59:46;;;;;;;2.72;2.53;;;21.50;62.80;;;;;;5080774;28;20075;-77
2022/09/04 13:02:18;;;;;;;2.72;2.47;;;21.60;63.30;;;;;;5081082;28;20048;-78
2022/09/04 13:04:54;;;;;;;3.93;2.80;;;21.50;64.80;;;;;;5077457;28;20052;-77
2022/09/04 13:07:44;;;;;;;4.28;2.88;;;21.40;64.20;;;;;;5084932;28;20421;-87
2022/09/04 13:10:35;;;;;;;2.90;2.58;;;21.40;63.90;;;;;;5082742;28;20024;-77
2022/09/04 13:13:22;;;;;;;2.63;2.40;;;21.10;64.00;;;;;;5078922;28;20029;-87
2022/09/04 13:16:07;;;;;;;3.35;2.67;;;21.00;64.80;;;;;;5082416;28;20371;-87
2022/09/04 13:18:40;;;;;;;2.47;2.20;;;21.00;65.20;;;;;;5077128;28;20108;-87
2022/09/04 13:21:17;;;;;;;3.03;2.60;;;21.00;65.20;;;;;;5092041;28;20036;-77
2022/09/04 13:23:56;;;;;;;3.08;2.45;;;21.10;65.70;;;;;;5092510;28;20055;-88
2022/09/04 13:26:43;;;;;;;2.92;2.63;;;21.10;67.00;;;;;;5091354;28;20077;-77
2022/09/04 13:29:35;;;;;;;2.65;2.45;;;20.90;66.40;;;;;;5089856;28;20110;-87
2022/09/04 13:32:27;;;;;;;4.10;2.80;;;20.80;67.00;;;;;;5091723;28;20496;-87
2022/09/04 13:35:30;;;;;;;3.05;2.78;;;20.70;68.10;;;;;;5086324;28;20085;-77
2022/09/04 13:38:14;;;;;;;3.92;3.20;;;20.60;68.50;;;;;;5092459;28;20541;-86
2022/09/04 13:40:54;;;;;;;2.72;2.53;;;20.50;69.20;;;;;;5091834;28;20485;-86
2022/09/04 13:43:30;;;;;;;3.00;2.60;;;20.50;69.30;;;;;;5093844;28;20031;-77
2022/09/04 13:46:03;;;;;;;3.70;2.80;;;20.50;69.90;;;;;;5091853;28;20496;-77
2022/09/04 13:48:45;;;;;;;3.08;2.70;;;20.40;69.60;;;;;;5092405;28;20351;-87
2022/09/04 13:51:21;;;;;;;2.95;2.47;;;20.40;71.10;;;;;;5093050;28;20020;-86
2022/09/04 13:54:03;;;;;;;3.13;2.83;;;20.40;71.00;;;;;;5092558;28;20023;-86
2022/09/04 13:56:37;;;;;;;3.15;2.72;;;20.40;70.20;;;;;;5092739;28;20024;-86
2022/09/04 13:59:08;;;;;;;3.75;3.20;;;20.40;71.10;;;;;;5093433;28;20378;-77
2022/09/04 14:01:44;;;;;;;3.03;2.80;;;20.40;70.90;;;;;;5092042;28;20468;-86
2022/09/04 14:04:16;;;;;;;3.25;2.38;;;20.30;71.60;;;;;;5093259;28;20081;-86
2022/09/04 14:06:43;;;;;;;3.35;2.75;;;20.30;71.60;;;;;;5109023;28;20594;-86
2022/09/04 14:09:09;;;;;;;4.43;3.17;;;20.30;69.30;;;;;;5092078;28;20123;-76
2022/09/04 14:11:41;;;;;;;3.00;2.63;;;20.30;69.70;;;;;;5093314;28;20021;-86